This is the latest recevied weather packets stored in our database for station/object KC5TIL. If no packets are shown the sender has not sent any weather packets the latest 10 day(s).
| Time | Temp. | Humidity | Pressure | Rain* | Wind** | Luminosity | Snow |
|---|---|---|---|---|---|---|---|
| 1777421233 | 24.44° C | 94% | 1010.6 hPa | 0 mm | - | 82 W/m² | - |
| 1777420930 | 24.44° C | 94% | 1010.9 hPa | 1.27 mm | - | 56 W/m² | - |
| 1777420626 | 24.44° C | 95% | 1010.8 hPa | 3.56 mm | - | 49 W/m² | - |
| 1777420323 | 25° C | 94% | 1010.5 hPa | 11.94 mm | - | 12 W/m² | - |
| 1777420018 | 25° C | 95% | 1010.8 hPa | 11.94 mm | - | 10 W/m² | - |
| 1777419715 | 25° C | 94% | 1011.1 hPa | 10.67 mm | - | 10 W/m² | - |
| 1777419413 | 25° C | 94% | 1010.5 hPa | 8.89 mm | - | 7 W/m² | - |
| 1777419112 | 25.56° C | 93% | 1011 hPa | 4.83 mm | - | 4 W/m² | - |
| 1777418811 | 25.56° C | 92% | 1011.5 hPa | 4.32 mm | - | 3 W/m² | - |
| 1777418509 | 25.56° C | 92% | 1011.1 hPa | 3.56 mm | - | 2 W/m² | - |
| 1777418205 | 26.11° C | 91% | 1010.9 hPa | 4.32 mm | - | 2 W/m² | - |
| 1777417901 | 26.67° C | 89% | 1010.9 hPa | 1.78 mm | - | 1 W/m² | - |
| 1777417597 | 26.67° C | 87% | 1010.7 hPa | 0 mm | - | 1 W/m² | - |
| 1777417293 | 26.67° C | 86% | 1010.5 hPa | 0 mm | - | 3 W/m² | - |
| 1777416989 | 27.22° C | 85% | 1010.3 hPa | 0 mm | - | 3 W/m² | - |
| 1777416685 | 27.22° C | 85% | 1010.7 hPa | 0 mm | - | 4 W/m² | - |
| 1777416381 | 27.22° C | 84% | 1010.7 hPa | 0 mm | - | 6 W/m² | - |
| 1777416080 | 27.22° C | 84% | 1010.1 hPa | 0 mm | - | 7 W/m² | - |
| 1777415775 | 27.22° C | 84% | 1009.8 hPa | 0 mm | - | 8 W/m² | - |
| 1777415472 | 27.22° C | 84% | 1009.9 hPa | 0 mm | - | 9 W/m² | - |
| 1777415168 | 27.22° C | 84% | 1010 hPa | 0 mm | - | 10 W/m² | - |
| 1777414863 | 27.22° C | 84% | 1009.9 hPa | 0 mm | - | 11 W/m² | - |
| 1777414556 | 27.22° C | 84% | 1010.1 hPa | 0 mm | - | 13 W/m² | - |
| 1777414256 | 27.22° C | 83% | 1010.2 hPa | 0 mm | - | 15 W/m² | - |
| 1777413952 | 27.22° C | 83% | 1009.6 hPa | 0 mm | - | 18 W/m² | - |
* Rain latest hour (hover to see other rain measurements)
** Current wind speed in m/s (hover to see current wind gust speed)